Time;durP1;ratioP1;P1;durP2;ratioP2;P2;SDS_P1;SDS_P2;PMS_P1;PMS_P2;Temp;Humidity;BMP_temperature;BMP_pressure;BME280_temperature;BME280_humidity;BME280_pressure;Samples;Min_cycle;Max_cycle;Signal;HPM_P1;HPM_P2
2022/07/14 00:02:09;;;;;;;29.65;13.50;;;;;;;;;;5075596;28;20029;-62
2022/07/14 00:04:35;;;;;;;25.05;12.00;;;;;;;;;;5075204;28;20082;-62
2022/07/14 00:07:02;;;;;;;27.13;13.07;;;;;;;;;;5075307;28;20032;-62
2022/07/14 00:09:28;;;;;;;35.83;15.10;;;;;;;;;;5075597;28;20074;-62
2022/07/14 00:11:54;;;;;;;37.80;15.48;;;;;;;;;;5075160;28;20027;-62
2022/07/14 00:14:20;;;;;;;33.80;15.35;;;;;;;;;;5075503;28;20107;-62
2022/07/14 00:16:46;;;;;;;26.77;13.60;;;;;;;;;;5074997;28;20115;-62
2022/07/14 00:19:12;;;;;;;28.40;13.60;;;;;;;;;;5074912;28;20033;-62
2022/07/14 00:21:39;;;;;;;33.05;14.48;;;;;;;;;;5075039;28;20025;-62
2022/07/14 00:24:05;;;;;;;35.50;14.60;;;;;;;;;;5075162;28;20100;-62
2022/07/14 00:26:31;;;;;;;28.08;12.77;;;;;;;;;;5075101;28;20024;-62
2022/07/14 00:28:58;;;;;;;26.77;13.73;;;;;;;;;;5074657;28;20472;-62
2022/07/14 00:31:24;;;;;;;27.55;13.10;;;;;;;;;;5075205;28;20025;-62
2022/07/14 00:33:50;;;;;;;28.38;13.20;;;;;;;;;;5073227;28;20052;-62
2022/07/14 00:36:17;;;;;;;31.40;14.35;;;;;;;;;;5073712;28;20033;-62
2022/07/14 00:38:43;;;;;;;27.70;12.85;;;;;;;;;;5074975;28;20040;-62
2022/07/14 00:41:09;;;;;;;27.85;12.70;;;;;;;;;;5073589;28;20410;-62
2022/07/14 00:43:35;;;;;;;23.38;12.52;;;;;;;;;;5074939;28;20506;-62
2022/07/14 00:46:02;;;;;;;24.05;11.43;;;;;;;;;;5073504;28;20025;-62
2022/07/14 00:48:28;;;;;;;19.42;11.70;;;;;;;;;;5073219;28;20052;-62
2022/07/14 00:50:55;;;;;;;23.35;12.02;;;;;;;;;;5074563;28;20500;-62
2022/07/14 00:53:22;;;;;;;39.05;12.15;;;;;;;;;;5073421;28;20028;-62
2022/07/14 00:55:48;;;;;;;20.63;10.77;;;;;;;;;;5074425;28;20029;-62
2022/07/14 00:58:14;;;;;;;21.92;10.88;;;;;;;;;;5074598;28;20448;-62
2022/07/14 01:00:41;;;;;;;19.55;9.20;;;;;;;;;;5074482;28;20024;-62
2022/07/14 01:03:07;;;;;;;20.52;9.57;;;;;;;;;;5072776;28;20574;-62
2022/07/14 01:05:33;;;;;;;14.65;7.45;;;;;;;;;;5074244;28;20482;-62
2022/07/14 01:07:59;;;;;;;24.30;8.60;;;;;;;;;;5074183;28;20044;-62
2022/07/14 01:10:26;;;;;;;16.63;8.13;;;;;;;;;;5073128;28;20027;-62
2022/07/14 01:12:52;;;;;;;19.65;7.93;;;;;;;;;;5074234;28;20111;-62
2022/07/14 01:15:19;;;;;;;16.50;6.75;;;;;;;;;;5074273;28;20056;-62
2022/07/14 01:17:47;;;;;;;13.98;6.35;;;;;;;;;;5073800;28;20029;-62
2022/07/14 01:20:13;;;;;;;19.38;6.07;;;;;;;;;;5072816;28;20032;-62
2022/07/14 01:22:39;;;;;;;14.65;5.50;;;;;;;;;;5074105;28;20028;-62
2022/07/14 01:25:07;;;;;;;13.05;5.53;;;;;;;;;;5073812;28;20547;-62
2022/07/14 01:27:34;;;;;;;22.80;5.75;;;;;;;;;;5072540;28;20072;-62
2022/07/14 01:30:00;;;;;;;12.10;4.40;;;;;;;;;;5073803;28;20029;-62
2022/07/14 01:32:26;;;;;;;15.55;4.95;;;;;;;;;;5072375;28;20047;-62
2022/07/14 01:34:52;;;;;;;19.88;4.72;;;;;;;;;;5073863;28;20024;-62
2022/07/14 01:37:20;;;;;;;15.63;5.47;;;;;;;;;;5074010;28;20474;-62
2022/07/14 01:39:46;;;;;;;19.58;4.43;;;;;;;;;;5073563;28;20505;-62
2022/07/14 01:42:12;;;;;;;19.42;5.13;;;;;;;;;;5073754;28;20381;-62
2022/07/14 01:44:39;;;;;;;19.00;4.75;;;;;;;;;;5072548;28;20029;-62
2022/07/14 01:47:06;;;;;;;19.08;4.35;;;;;;;;;;5071813;28;20124;-62
2022/07/14 01:49:33;;;;;;;13.75;4.65;;;;;;;;;;5072318;28;20032;-62
2022/07/14 01:52:03;;;;;;;10.48;4.63;;;;;;;;;;5072119;28;20493;-62
2022/07/14 01:54:31;;;;;;;17.60;5.18;;;;;;;;;;5072270;28;20032;-62
2022/07/14 01:56:57;;;;;;;21.77;4.47;;;;;;;;;;5071973;28;20032;-62
2022/07/14 01:59:24;;;;;;;19.67;4.30;;;;;;;;;;5071950;28;20099;-62
2022/07/14 02:01:50;;;;;;;15.27;4.13;;;;;;;;;;5071641;28;20032;-62
2022/07/14 02:04:17;;;;;;;12.93;4.15;;;;;;;;;;5071783;28;20032;-62
2022/07/14 02:06:44;;;;;;;13.90;4.35;;;;;;;;;;5073176;28;20040;-62
2022/07/14 02:09:17;;;;;;;20.58;3.85;;;;;;;;;;5071766;28;20032;-62
2022/07/14 02:14:29;;;;;;;13.57;4.30;;;;;;;;;;5071730;28;20028;-62
2022/07/14 02:16:56;;;;;;;15.90;4.22;;;;;;;;;;5071157;28;20029;-62
2022/07/14 02:19:26;;;;;;;15.43;4.00;;;;;;;;;;5071739;28;20028;-62
2022/07/14 02:21:53;;;;;;;11.88;3.30;;;;;;;;;;5071594;28;20029;-62
2022/07/14 02:24:20;;;;;;;9.68;3.65;;;;;;;;;;5072747;28;20025;-62
2022/07/14 02:26:46;;;;;;;13.25;3.78;;;;;;;;;;5071478;28;20035;-62
2022/07/14 02:29:12;;;;;;;18.50;5.00;;;;;;;;;;5072655;28;20482;-62
2022/07/14 02:31:38;;;;;;;13.90;4.07;;;;;;;;;;5071101;28;20090;-62
2022/07/14 02:34:05;;;;;;;10.10;4.25;;;;;;;;;;5071325;28;20516;-62
2022/07/14 02:36:32;;;;;;;14.55;3.47;;;;;;;;;;5072622;28;20028;-62
2022/07/14 02:38:59;;;;;;;11.70;4.28;;;;;;;;;;5071342;28;20024;-62
2022/07/14 02:41:25;;;;;;;13.52;4.18;;;;;;;;;;5072633;28;20044;-62
2022/07/14 02:43:52;;;;;;;14.07;4.00;;;;;;;;;;5071133;28;20190;-62
2022/07/14 02:46:19;;;;;;;9.55;3.35;;;;;;;;;;5070934;28;20033;-62
2022/07/14 02:48:46;;;;;;;11.15;3.65;;;;;;;;;;5072650;28;20028;-62
2022/07/14 02:51:12;;;;;;;12.95;4.63;;;;;;;;;;5070930;28;20433;-62
2022/07/14 02:53:39;;;;;;;13.57;3.38;;;;;;;;;;5071206;28;20016;-62
2022/07/14 02:56:06;;;;;;;16.90;3.78;;;;;;;;;;5071054;28;20031;-62
2022/07/14 02:58:34;;;;;;;12.98;3.42;;;;;;;;;;5070802;28;20036;-62
2022/07/14 03:01:05;;;;;;;11.68;3.72;;;;;;;;;;5072159;28;20036;-62
2022/07/14 03:03:32;;;;;;;10.63;3.30;;;;;;;;;;5071120;28;20028;-62
2022/07/14 03:05:58;;;;;;;15.80;3.25;;;;;;;;;;5070832;28;20111;-62
2022/07/14 03:08:24;;;;;;;14.25;3.53;;;;;;;;;;5070979;28;20024;-62
2022/07/14 03:10:51;;;;;;;17.20;4.40;;;;;;;;;;5070473;28;20081;-62
2022/07/14 03:13:17;;;;;;;14.82;3.78;;;;;;;;;;5070494;28;20028;-62
2022/07/14 03:15:45;;;;;;;12.32;3.35;;;;;;;;;;5070787;28;20493;-62
2022/07/14 03:18:12;;;;;;;9.32;3.55;;;;;;;;;;5071851;28;20074;-62
2022/07/14 03:20:40;;;;;;;13.27;3.15;;;;;;;;;;5070965;28;20071;-62
2022/07/14 03:23:07;;;;;;;13.00;3.10;;;;;;;;;;5071861;28;20436;-62
2022/07/14 03:25:33;;;;;;;10.65;3.45;;;;;;;;;;5070709;28;20035;-62
2022/07/14 03:27:59;;;;;;;10.75;3.58;;;;;;;;;;5071633;28;20051;-62
2022/07/14 03:30:32;;;;;;;12.20;3.85;;;;;;;;;;5070842;28;20053;-62
2022/07/14 03:32:58;;;;;;;11.52;3.83;;;;;;;;;;5070597;28;20462;-62
2022/07/14 03:35:25;;;;;;;10.63;3.63;;;;;;;;;;5070547;28;20024;-62
2022/07/14 03:37:51;;;;;;;12.95;3.55;;;;;;;;;;5070689;28;20032;-62
2022/07/14 03:40:17;;;;;;;11.77;3.35;;;;;;;;;;5070555;28;20478;-62
2022/07/14 03:42:44;;;;;;;12.23;4.38;;;;;;;;;;5070673;28;20043;-62
2022/07/14 03:45:10;;;;;;;8.00;3.20;;;;;;;;;;5070299;28;20029;-62
2022/07/14 03:47:37;;;;;;;14.65;3.70;;;;;;;;;;5070548;28;20029;-62
2022/07/14 03:50:04;;;;;;;17.17;3.45;;;;;;;;;;5070543;28;20021;-62
2022/07/14 03:52:31;;;;;;;13.02;3.90;;;;;;;;;;5070433;28;20119;-62
2022/07/14 03:54:58;;;;;;;14.07;3.90;;;;;;;;;;5070442;28;20478;-62
2022/07/14 03:57:25;;;;;;;15.73;3.88;;;;;;;;;;5069909;28;20025;-62
2022/07/14 03:59:51;;;;;;;12.82;4.45;;;;;;;;;;5070481;28;20523;-62
2022/07/14 04:02:17;;;;;;;12.07;3.58;;;;;;;;;;5070308;28;20107;-62
2022/07/14 04:04:44;;;;;;;15.15;3.08;;;;;;;;;;5070382;28;20028;-62
2022/07/14 04:07:10;;;;;;;13.45;3.30;;;;;;;;;;5070363;28;20043;-62
2022/07/14 04:09:37;;;;;;;14.02;3.50;;;;;;;;;;5070390;28;20035;-62
2022/07/14 04:12:03;;;;;;;10.73;2.85;;;;;;;;;;5070096;28;20499;-62
2022/07/14 04:14:31;;;;;;;10.23;3.05;;;;;;;;;;5070257;28;20490;-62
2022/07/14 04:16:57;;;;;;;9.00;3.30;;;;;;;;;;5053426;28;20029;-62
2022/07/14 04:19:24;;;;;;;15.57;2.95;;;;;;;;;;5070229;28;20060;-62
2022/07/14 04:21:50;;;;;;;11.70;2.83;;;;;;;;;;5071877;28;20037;-62
2022/07/14 04:24:17;;;;;;;14.30;2.50;;;;;;;;;;5057286;28;20098;-62
2022/07/14 04:26:45;;;;;;;6.82;2.60;;;;;;;;;;5073700;28;20029;-62
2022/07/14 04:29:11;;;;;;;10.77;3.08;;;;;;;;;;5073524;28;20072;-62
2022/07/14 04:31:37;;;;;;;8.45;2.63;;;;;;;;;;5075268;28;20040;-62
2022/07/14 04:34:06;;;;;;;8.02;2.40;;;;;;;;;;5073719;28;20031;-62
2022/07/14 04:36:33;;;;;;;7.60;2.85;;;;;;;;;;5073599;28;20064;-62
2022/07/14 04:39:01;;;;;;;10.23;2.40;;;;;;;;;;5073551;28;20577;-62
2022/07/14 04:41:30;;;;;;;9.55;2.80;;;;;;;;;;5073252;28;20127;-62
2022/07/14 04:43:57;;;;;;;19.45;3.67;;;;;;;;;;5073738;28;20067;-62
2022/07/14 04:46:24;;;;;;;9.90;2.17;;;;;;;;;;5074557;28;20052;-62
2022/07/14 04:52:03;;;;;;;11.38;2.45;;;;;;;;;;5073603;28;20039;-62
2022/07/14 04:54:52;;;;;;;11.20;2.28;;;;;;;;;;5073134;28;20029;-62
2022/07/14 04:57:39;;;;;;;11.38;2.05;;;;;;;;;;5073406;28;20036;-62
2022/07/14 05:00:09;;;;;;;10.57;2.40;;;;;;;;;;5073233;28;20025;-62
2022/07/14 05:02:37;;;;;;;9.77;2.22;;;;;;;;;;5073373;28;20031;-62
2022/07/14 05:05:05;;;;;;;9.50;2.30;;;;;;;;;;5073047;28;20112;-62
2022/07/14 05:07:33;;;;;;;7.20;2.25;;;;;;;;;;5073097;28;20028;-62
2022/07/14 05:10:01;;;;;;;10.75;2.08;;;;;;;;;;5072958;28;20020;-62
2022/07/14 05:12:27;;;;;;;8.20;2.17;;;;;;;;;;5072952;28;20033;-62
2022/07/14 05:14:55;;;;;;;5.65;2.17;;;;;;;;;;5073069;28;20035;-62
2022/07/14 05:17:22;;;;;;;7.80;2.33;;;;;;;;;;5072750;28;20082;-62
2022/07/14 05:19:57;;;;;;;10.32;2.15;;;;;;;;;;5073108;28;20107;-62
2022/07/14 05:22:24;;;;;;;10.43;2.10;;;;;;;;;;5072624;28;20033;-64
2022/07/14 05:24:51;;;;;;;9.15;2.35;;;;;;;;;;5072774;28;20024;-64
2022/07/14 05:27:18;;;;;;;10.40;1.88;;;;;;;;;;5072529;28;20132;-64
2022/07/14 05:29:45;;;;;;;20.45;2.70;;;;;;;;;;5072803;28;20063;-64
2022/07/14 05:32:12;;;;;;;8.57;2.72;;;;;;;;;;5072583;28;20032;-64
2022/07/14 05:34:43;;;;;;;7.63;1.92;;;;;;;;;;5072323;28;20025;-64
2022/07/14 05:37:11;;;;;;;12.05;3.28;;;;;;;;;;5072623;28;20036;-64
2022/07/14 05:39:38;;;;;;;6.97;2.70;;;;;;;;;;5072204;28;20070;-62
2022/07/14 05:42:04;;;;;;;6.90;1.80;;;;;;;;;;5073898;28;20083;-62
2022/07/14 05:44:31;;;;;;;6.25;2.33;;;;;;;;;;5073893;28;20111;-62
2022/07/14 05:46:57;;;;;;;10.18;2.05;;;;;;;;;;5072357;28;20119;-62
2022/07/14 05:49:23;;;;;;;17.60;2.67;;;;;;;;;;5073591;28;20056;-62
2022/07/14 05:51:50;;;;;;;8.45;2.40;;;;;;;;;;5073677;28;20577;-62
2022/07/14 05:54:16;;;;;;;10.27;2.30;;;;;;;;;;5071907;28;20114;-62
2022/07/14 05:56:42;;;;;;;10.13;2.97;;;;;;;;;;5072356;28;20024;-62
2022/07/14 05:59:09;;;;;;;6.70;2.40;;;;;;;;;;5070023;28;20458;-62
2022/07/14 06:01:35;;;;;;;9.95;2.33;;;;;;;;;;5072310;28;20068;-62
2022/07/14 06:04:02;;;;;;;11.15;2.30;;;;;;;;;;5071682;28;20040;-62
2022/07/14 06:06:30;;;;;;;12.23;1.80;;;;;;;;;;5072261;28;20028;-62
2022/07/14 06:08:56;;;;;;;7.93;2.25;;;;;;;;;;5070896;28;20036;-63
2022/07/14 06:11:22;;;;;;;10.50;2.22;;;;;;;;;;5071148;28;20071;-62
2022/07/14 06:13:50;;;;;;;8.93;1.92;;;;;;;;;;5071934;28;20497;-62
2022/07/14 06:16:17;;;;;;;13.38;2.20;;;;;;;;;;5071691;28;20032;-62
2022/07/14 06:18:43;;;;;;;10.65;2.60;;;;;;;;;;5052051;28;20025;-62
2022/07/14 06:21:10;;;;;;;10.60;2.03;;;;;;;;;;5061744;28;20497;-64
2022/07/14 06:23:36;;;;;;;10.05;2.15;;;;;;;;;;5071580;28;20386;-63
2022/07/14 06:26:12;;;;;;;10.45;2.10;;;;;;;;;;5071846;28;20490;-64
2022/07/14 06:28:42;;;;;;;5.45;2.05;;;;;;;;;;5071314;28;20049;-64
2022/07/14 06:31:09;;;;;;;10.45;2.08;;;;;;;;;;5071429;28;20107;-64
2022/07/14 06:33:36;;;;;;;3.92;1.70;;;;;;;;;;5071104;28;20503;-64
2022/07/14 06:36:17;;;;;;;11.05;1.98;;;;;;;;;;5070505;28;20029;-64
2022/07/14 06:38:43;;;;;;;15.00;3.00;;;;;;;;;;5072591;28;20025;-63
2022/07/14 06:41:10;;;;;;;10.60;1.77;;;;;;;;;;5071323;28;20506;-64
2022/07/14 06:43:42;;;;;;;10.15;2.03;;;;;;;;;;5071124;28;20115;-64
2022/07/14 06:46:08;;;;;;;6.15;2.08;;;;;;;;;;5071729;28;20028;-64
2022/07/14 06:48:35;;;;;;;6.45;1.55;;;;;;;;;;5070583;28;20589;-64
2022/07/14 06:51:03;;;;;;;5.97;1.33;;;;;;;;;;5070927;28;20115;-64
2022/07/14 06:53:29;;;;;;;4.95;1.50;;;;;;;;;;5072613;28;20510;-64
2022/07/14 06:55:55;;;;;;;13.93;2.17;;;;;;;;;;5068376;28;20024;-64
2022/07/14 06:58:21;;;;;;;7.70;2.05;;;;;;;;;;5065746;28;20406;-64
2022/07/14 07:00:48;;;;;;;5.45;1.75;;;;;;;;;;5070784;28;20025;-64
2022/07/14 07:03:14;;;;;;;6.15;1.45;;;;;;;;;;5069575;28;20020;-64
2022/07/14 07:08:25;;;;;;;4.10;1.30;;;;;;;;;;5071974;28;20490;-64
2022/07/14 07:10:52;;;;;;;9.55;1.65;;;;;;;;;;5072388;28;20024;-64
2022/07/14 07:13:18;;;;;;;6.60;1.33;;;;;;;;;;5071838;28;20036;-65
2022/07/14 07:15:44;;;;;;;7.03;1.70;;;;;;;;;;5071265;28;20470;-64
2022/07/14 07:18:10;;;;;;;3.53;1.17;;;;;;;;;;5072092;28;20047;-64
2022/07/14 07:20:37;;;;;;;7.22;1.70;;;;;;;;;;5071924;28;20036;-65
2022/07/14 07:23:03;;;;;;;5.80;1.50;;;;;;;;;;5072331;28;20115;-64
2022/07/14 07:25:30;;;;;;;7.40;1.35;;;;;;;;;;5071542;28;20132;-65
2022/07/14 07:27:56;;;;;;;5.88;1.65;;;;;;;;;;5071150;28;20047;-64
2022/07/14 07:30:22;;;;;;;7.85;1.85;;;;;;;;;;5069418;28;20027;-64
2022/07/14 07:32:48;;;;;;;6.82;1.80;;;;;;;;;;5070038;28;20033;-64
2022/07/14 07:35:14;;;;;;;6.90;1.73;;;;;;;;;;5069448;28;20101;-64
2022/07/14 07:37:40;;;;;;;5.72;1.77;;;;;;;;;;5062831;28;20107;-64
2022/07/14 07:40:07;;;;;;;7.47;1.88;;;;;;;;;;5070535;28;20115;-64
2022/07/14 07:42:33;;;;;;;7.32;1.73;;;;;;;;;;5070863;28;20020;-64
2022/07/14 07:45:00;;;;;;;8.23;1.58;;;;;;;;;;5066658;28;20178;-64
2022/07/14 07:47:26;;;;;;;7.40;2.25;;;;;;;;;;5066898;28;20086;-64
2022/07/14 07:49:53;;;;;;;4.68;1.60;;;;;;;;;;5068636;28;20020;-64
2022/07/14 07:52:20;;;;;;;4.70;1.90;;;;;;;;;;5070350;28;20074;-64
2022/07/14 07:54:46;;;;;;;5.60;1.90;;;;;;;;;;5068989;28;20016;-64
2022/07/14 07:57:12;;;;;;;10.50;2.03;;;;;;;;;;5068185;28;20047;-64
2022/07/14 07:59:39;;;;;;;5.88;2.03;;;;;;;;;;5073629;28;20098;-64
2022/07/14 08:02:05;;;;;;;5.40;2.00;;;;;;;;;;5074502;28;20025;-64
2022/07/14 08:04:32;;;;;;;10.85;3.03;;;;;;;;;;5071295;28;20016;-64
2022/07/14 08:06:58;;;;;;;10.13;1.80;;;;;;;;;;5072886;28;20031;-64
2022/07/14 08:09:24;;;;;;;11.05;2.15;;;;;;;;;;5073054;28;20060;-63
2022/07/14 08:11:50;;;;;;;6.47;1.98;;;;;;;;;;5074156;28;20374;-65
2022/07/14 08:17:01;;;;;;;8.57;2.17;;;;;;;;;;5073992;28;20064;-65
2022/07/14 08:19:28;;;;;;;6.00;1.42;;;;;;;;;;5074052;28;20044;-64
2022/07/14 08:21:54;;;;;;;9.80;2.28;;;;;;;;;;5073165;28;20036;-64
2022/07/14 08:24:23;;;;;;;8.30;2.20;;;;;;;;;;5073824;28;20043;-64
2022/07/14 08:26:50;;;;;;;7.25;1.60;;;;;;;;;;5073038;28;20028;-63
2022/07/14 08:29:17;;;;;;;10.43;2.50;;;;;;;;;;5074091;28;20032;-65
2022/07/14 08:31:43;;;;;;;9.77;2.40;;;;;;;;;;5072804;28;20024;-64
2022/07/14 08:34:09;;;;;;;9.05;2.00;;;;;;;;;;5072337;28;20461;-64
2022/07/14 08:36:35;;;;;;;5.20;2.05;;;;;;;;;;5073769;28;20043;-64
2022/07/14 08:39:05;;;;;;;9.18;2.40;;;;;;;;;;5067634;28;20035;-65
2022/07/14 08:41:31;;;;;;;5.45;1.70;;;;;;;;;;5073799;28;20173;-64
2022/07/14 08:43:57;;;;;;;10.82;1.83;;;;;;;;;;5073245;28;20115;-65
2022/07/14 08:46:24;;;;;;;6.10;1.85;;;;;;;;;;5073805;28;20033;-65
2022/07/14 08:48:52;;;;;;;5.00;2.10;;;;;;;;;;5071652;28;20154;-64
2022/07/14 08:51:18;;;;;;;8.57;1.90;;;;;;;;;;5074301;28;20486;-65
2022/07/14 08:53:45;;;;;;;8.63;2.38;;;;;;;;;;5073443;28;20016;-64
2022/07/14 08:56:11;;;;;;;8.30;2.10;;;;;;;;;;5073401;28;20077;-64
2022/07/14 08:58:39;;;;;;;8.38;1.83;;;;;;;;;;5073494;28;20119;-64
2022/07/14 09:01:05;;;;;;;9.00;2.25;;;;;;;;;;5072825;28;20021;-65
2022/07/14 09:03:32;;;;;;;7.20;2.50;;;;;;;;;;5073117;28;20037;-64
2022/07/14 09:05:58;;;;;;;8.82;1.83;;;;;;;;;;5067045;28;20501;-64
2022/07/14 09:08:24;;;;;;;6.38;1.55;;;;;;;;;;5071994;28;20029;-64
2022/07/14 09:10:50;;;;;;;12.35;1.83;;;;;;;;;;5072925;28;20668;-64
2022/07/14 09:13:19;;;;;;;9.88;1.92;;;;;;;;;;5073307;28;20555;-64
2022/07/14 09:15:45;;;;;;;8.68;1.98;;;;;;;;;;5072700;28;20504;-64
2022/07/14 09:18:27;;;;;;;10.27;2.15;;;;;;;;;;5088708;28;20047;-64
2022/07/14 09:20:54;;;;;;;14.87;2.60;;;;;;;;;;5072709;28;20025;-64
2022/07/14 09:23:31;;;;;;;10.10;2.03;;;;;;;;;;5073190;28;20044;-64
2022/07/14 09:26:24;;;;;;;9.68;1.75;;;;;;;;;;5072573;28;20119;-64
2022/07/14 09:28:51;;;;;;;4.70;1.63;;;;;;;;;;5070645;28;20560;-64
2022/07/14 09:31:23;;;;;;;6.65;1.70;;;;;;;;;;5072794;28;20029;-65
2022/07/14 09:33:51;;;;;;;9.63;1.50;;;;;;;;;;5072588;28;20078;-65
2022/07/14 09:36:22;;;;;;;9.32;1.83;;;;;;;;;;5074126;28;20539;-65
2022/07/14 09:38:49;;;;;;;5.32;1.70;;;;;;;;;;5073490;28;20040;-64
2022/07/14 09:41:15;;;;;;;4.90;1.70;;;;;;;;;;5073617;28;20029;-65
2022/07/14 09:44:01;;;;;;;5.60;1.75;;;;;;;;;;5073830;28;20116;-65
2022/07/14 09:46:47;;;;;;;10.05;1.75;;;;;;;;;;5064620;28;20063;-64
2022/07/14 09:49:14;;;;;;;3.90;1.48;;;;;;;;;;5065352;28;20019;-64
2022/07/14 09:51:59;;;;;;;6.55;1.83;;;;;;;;;;5073409;28;20050;-65
2022/07/14 09:54:44;;;;;;;5.00;1.42;;;;;;;;;;5060024;28;20035;-64
2022/07/14 09:57:13;;;;;;;10.68;1.80;;;;;;;;;;5072754;28;20032;-64
2022/07/14 09:59:43;;;;;;;7.60;2.47;;;;;;;;;;5071544;28;20070;-64
2022/07/14 10:02:11;;;;;;;6.95;1.60;;;;;;;;;;5073155;28;20040;-64
2022/07/14 10:04:38;;;;;;;5.28;1.60;;;;;;;;;;5070184;28;20040;-65
2022/07/14 10:07:04;;;;;;;4.65;1.70;;;;;;;;;;5072922;28;20020;-65
2022/07/14 10:09:32;;;;;;;8.18;1.80;;;;;;;;;;5073519;28;20066;-65
2022/07/14 10:12:00;;;;;;;7.88;1.50;;;;;;;;;;5073335;28;20024;-64
2022/07/14 10:14:26;;;;;;;5.53;1.60;;;;;;;;;;5072837;28;20582;-64
2022/07/14 10:16:52;;;;;;;6.22;2.05;;;;;;;;;;5073007;28;20359;-65
2022/07/14 10:19:19;;;;;;;7.30;1.83;;;;;;;;;;5073012;28;20032;-64
2022/07/14 10:21:46;;;;;;;10.43;2.10;;;;;;;;;;5073039;28;20478;-65
2022/07/14 10:24:12;;;;;;;6.18;1.25;;;;;;;;;;5073203;28;20021;-65
2022/07/14 10:26:39;;;;;;;4.90;1.60;;;;;;;;;;5073140;28;20750;-64
2022/07/14 10:29:05;;;;;;;8.48;2.42;;;;;;;;;;5072473;28;20482;-65
2022/07/14 10:31:48;;;;;;;5.60;1.45;;;;;;;;;;5073205;28;20384;-64
2022/07/14 10:34:17;;;;;;;3.90;1.50;;;;;;;;;;5072815;28;20044;-64
2022/07/14 10:36:48;;;;;;;7.15;1.35;;;;;;;;;;5072857;28;20101;-64
2022/07/14 10:39:19;;;;;;;6.05;1.48;;;;;;;;;;5072863;28;20024;-65
2022/07/14 10:42:05;;;;;;;6.88;1.80;;;;;;;;;;5072772;28;20040;-64
2022/07/14 10:44:33;;;;;;;6.22;1.70;;;;;;;;;;5072792;28;20043;-65
2022/07/14 10:47:12;;;;;;;8.52;1.60;;;;;;;;;;5072254;28;20402;-64
2022/07/14 10:49:56;;;;;;;4.40;1.70;;;;;;;;;;5072506;28;20039;-65
2022/07/14 10:52:26;;;;;;;12.00;1.60;;;;;;;;;;5072234;28;20490;-65
2022/07/14 10:55:11;;;;;;;7.10;1.75;;;;;;;;;;5072564;28;20107;-65
2022/07/14 10:57:37;;;;;;;5.72;1.85;;;;;;;;;;5071996;28;20017;-65
2022/07/14 11:00:03;;;;;;;5.68;1.60;;;;;;;;;;5072343;28;20028;-65
2022/07/14 11:02:31;;;;;;;7.95;1.30;;;;;;;;;;5072501;28;20047;-65
2022/07/14 11:04:58;;;;;;;7.68;1.52;;;;;;;;;;5070403;28;20012;-65
2022/07/14 11:07:40;;;;;;;9.20;2.17;;;;;;;;;;5072572;28;20075;-64
2022/07/14 11:10:26;;;;;;;5.20;1.50;;;;;;;;;;5072337;28;20508;-65
2022/07/14 11:13:01;;;;;;;7.50;1.60;;;;;;;;;;5071941;28;20086;-64
2022/07/14 11:15:38;;;;;;;4.57;1.50;;;;;;;;;;5072379;28;20028;-64
2022/07/14 11:18:24;;;;;;;3.75;1.55;;;;;;;;;;5070912;28;20397;-64
2022/07/14 11:20:55;;;;;;;8.15;1.50;;;;;;;;;;5072377;28;20036;-64
2022/07/14 11:23:32;;;;;;;4.40;1.98;;;;;;;;;;5072197;28;20020;-64
2022/07/14 11:26:02;;;;;;;3.50;1.50;;;;;;;;;;5071902;28;20037;-64
2022/07/14 11:28:31;;;;;;;3.30;1.33;;;;;;;;;;5072112;28;20068;-65
2022/07/14 11:31:13;;;;;;;4.05;1.40;;;;;;;;;;5070440;28;20059;-66
2022/07/14 11:36:24;;;;;;;2.25;1.23;;;;;;;;;;5071920;28;20036;-65
2022/07/14 11:38:51;;;;;;;5.32;1.60;;;;;;;;;;5071618;28;20402;-65
2022/07/14 11:41:17;;;;;;;7.68;1.48;;;;;;;;;;5071349;28;20055;-65
2022/07/14 11:43:44;;;;;;;6.25;1.67;;;;;;;;;;5071477;28;20090;-65
2022/07/14 11:46:12;;;;;;;4.78;1.27;;;;;;;;;;5071793;28;20110;-65
2022/07/14 11:48:40;;;;;;;12.35;1.80;;;;;;;;;;5072004;28;20081;-65
2022/07/14 11:51:08;;;;;;;2.90;1.25;;;;;;;;;;5071002;28;20024;-65
2022/07/14 11:53:35;;;;;;;3.92;1.73;;;;;;;;;;5072279;28;20056;-65
2022/07/14 11:56:02;;;;;;;3.30;1.27;;;;;;;;;;5071440;28;20086;-65
2022/07/14 11:58:29;;;;;;;3.70;1.10;;;;;;;;;;5072041;28;20067;-65
2022/07/14 12:01:00;;;;;;;3.97;1.05;;;;;;;;;;5071929;28;20031;-65
2022/07/14 12:03:26;;;;;;;3.78;1.80;;;;;;;;;;5070036;28;20028;-65
2022/07/14 12:05:57;;;;;;;3.42;0.80;;;;;;;;;;5071891;28;20029;-65
2022/07/14 12:08:24;;;;;;;2.28;1.15;;;;;;;;;;5071701;28;20056;-65
2022/07/14 12:10:50;;;;;;;2.88;1.20;;;;;;;;;;5071681;28;20024;-65
2022/07/14 12:13:19;;;;;;;6.03;1.20;;;;;;;;;;5070044;28;20028;-65
2022/07/14 12:15:47;;;;;;;3.40;1.17;;;;;;;;;;5071732;28;20029;-65
2022/07/14 12:18:13;;;;;;;3.33;1.20;;;;;;;;;;5071760;28;20043;-65
2022/07/14 12:20:41;;;;;;;3.13;1.08;;;;;;;;;;5071922;28;20044;-65
2022/07/14 12:23:08;;;;;;;2.15;0.90;;;;;;;;;;5071682;28;20028;-65
2022/07/14 12:25:35;;;;;;;7.50;1.27;;;;;;;;;;5071396;28;20032;-65
2022/07/14 12:28:02;;;;;;;3.03;1.25;;;;;;;;;;5071582;28;20521;-65
2022/07/14 12:30:42;;;;;;;3.63;1.10;;;;;;;;;;5071533;28;20017;-65
2022/07/14 12:33:09;;;;;;;3.72;0.95;;;;;;;;;;5071628;28;20024;-65
2022/07/14 12:35:35;;;;;;;8.55;1.38;;;;;;;;;;5071428;28;20155;-65
2022/07/14 12:38:02;;;;;;;4.38;0.93;;;;;;;;;;5071574;28;20033;-65
2022/07/14 12:40:28;;;;;;;7.72;1.00;;;;;;;;;;5071044;28;20108;-65
2022/07/14 12:42:54;;;;;;;1.67;1.02;;;;;;;;;;5071578;28;20024;-65
2022/07/14 12:45:21;;;;;;;3.20;0.90;;;;;;;;;;5074555;28;20498;-65
2022/07/14 12:47:51;;;;;;;2.38;0.90;;;;;;;;;;5075044;28;20536;-65
2022/07/14 12:50:21;;;;;;;3.85;1.02;;;;;;;;;;5074796;28;20032;-65
2022/07/14 12:52:52;;;;;;;2.88;0.93;;;;;;;;;;5075108;28;20035;-65
2022/07/14 12:55:38;;;;;;;5.47;1.20;;;;;;;;;;5074691;28;20107;-65
2022/07/14 12:58:08;;;;;;;6.28;1.20;;;;;;;;;;5063928;28;20023;-65
2022/07/14 13:00:35;;;;;;;2.33;1.10;;;;;;;;;;5074625;28;20028;-65
2022/07/14 13:03:10;;;;;;;3.13;0.90;;;;;;;;;;5072921;28;20071;-65
2022/07/14 13:05:37;;;;;;;2.00;0.85;;;;;;;;;;5074784;28;20032;-65
2022/07/14 13:08:23;;;;;;;2.08;0.95;;;;;;;;;;5074275;28;20437;-65
2022/07/14 13:10:55;;;;;;;2.50;1.00;;;;;;;;;;5074143;28;20059;-65
2022/07/14 13:13:37;;;;;;;2.38;0.90;;;;;;;;;;5074174;28;20021;-65
2022/07/14 13:16:21;;;;;;;4.85;0.90;;;;;;;;;;5074205;28;20020;-65
2022/07/14 13:19:06;;;;;;;1.45;0.90;;;;;;;;;;5072996;28;20068;-64
2022/07/14 13:21:51;;;;;;;6.00;1.50;;;;;;;;;;5074330;28;20085;-65
2022/07/14 13:24:17;;;;;;;2.95;1.08;;;;;;;;;;5074002;28;20482;-65
2022/07/14 13:26:43;;;;;;;4.50;0.80;;;;;;;;;;5074276;28;20029;-65
2022/07/14 13:29:09;;;;;;;4.60;0.93;;;;;;;;;;5074209;28;20036;-65
2022/07/14 13:31:36;;;;;;;6.30;1.92;;;;;;;;;;5074214;28;20078;-65
2022/07/14 13:34:02;;;;;;;6.43;1.23;;;;;;;;;;5074083;28;20023;-65
2022/07/14 13:36:29;;;;;;;2.70;1.27;;;;;;;;;;5073827;28;20420;-65
2022/07/14 13:38:56;;;;;;;1.73;0.82;;;;;;;;;;5073784;28;20081;-65
2022/07/14 13:41:22;;;;;;;3.63;1.15;;;;;;;;;;5074014;28;20492;-65
2022/07/14 13:43:50;;;;;;;1.98;0.90;;;;;;;;;;5073740;28;20557;-65
2022/07/14 13:46:17;;;;;;;5.05;1.20;;;;;;;;;;5073787;28;20033;-65
2022/07/14 13:48:43;;;;;;;3.63;1.17;;;;;;;;;;5073687;28;20028;-65
2022/07/14 13:53:54;;;;;;;1.80;0.90;;;;;;;;;;5073266;28;20370;-65
2022/07/14 13:56:20;;;;;;;2.33;1.08;;;;;;;;;;5073497;28;20516;-65
2022/07/14 13:58:47;;;;;;;3.85;1.20;;;;;;;;;;5073479;28;20028;-65
2022/07/14 14:01:13;;;;;;;3.25;1.00;;;;;;;;;;5073416;28;20358;-65
2022/07/14 14:03:40;;;;;;;3.00;1.20;;;;;;;;;;5071530;28;20471;-65
2022/07/14 14:06:10;;;;;;;3.30;1.38;;;;;;;;;;5073061;28;20039;-66
2022/07/14 14:08:37;;;;;;;2.28;1.17;;;;;;;;;;5073193;28;20081;-65
2022/07/14 14:11:04;;;;;;;6.22;1.30;;;;;;;;;;5073336;28;20035;-65
2022/07/14 14:13:33;;;;;;;7.82;1.20;;;;;;;;;;5073107;28;20056;-65
2022/07/14 14:16:00;;;;;;;3.20;0.80;;;;;;;;;;5072965;28;20036;-65
2022/07/14 14:18:30;;;;;;;3.47;1.13;;;;;;;;;;5072987;28;20035;-65
2022/07/14 14:20:57;;;;;;;6.43;1.02;;;;;;;;;;5072840;28;20060;-65
2022/07/14 14:23:24;;;;;;;11.07;1.60;;;;;;;;;;5072975;28;20379;-65
2022/07/14 14:25:50;;;;;;;6.20;1.10;;;;;;;;;;5073044;28;20497;-65
2022/07/14 14:28:17;;;;;;;4.07;1.10;;;;;;;;;;5072717;28;20037;-65
2022/07/14 14:30:43;;;;;;;3.95;1.23;;;;;;;;;;5073082;28;20032;-65
2022/07/14 14:33:09;;;;;;;1.85;0.93;;;;;;;;;;5072819;28;20048;-65
2022/07/14 14:35:36;;;;;;;5.65;1.15;;;;;;;;;;5072501;28;20043;-65
2022/07/14 14:38:07;;;;;;;4.07;1.00;;;;;;;;;;5073072;28;20550;-65
2022/07/14 14:40:34;;;;;;;5.53;1.20;;;;;;;;;;5072756;28;20100;-65
2022/07/14 14:43:00;;;;;;;3.83;1.20;;;;;;;;;;5072913;28;20029;-65
2022/07/14 14:45:26;;;;;;;4.18;1.40;;;;;;;;;;5072448;28;20506;-65
2022/07/14 14:47:52;;;;;;;5.15;1.45;;;;;;;;;;5072996;28;20567;-65
2022/07/14 14:50:18;;;;;;;5.25;1.20;;;;;;;;;;5072174;28;20025;-65
2022/07/14 14:52:49;;;;;;;4.18;1.27;;;;;;;;;;5072748;28;20382;-65
2022/07/14 14:55:16;;;;;;;5.00;1.20;;;;;;;;;;5072722;28;20044;-65
2022/07/14 14:57:44;;;;;;;4.25;1.17;;;;;;;;;;5072375;28;20508;-65
2022/07/14 15:00:10;;;;;;;3.53;1.52;;;;;;;;;;5072630;28;20054;-65